Chicago, Illinois
Traffic Map
Current Weather Conditions
Chicago, Illinois
Overcast
Overcast
24°
Feels Like: 24°
Wind Chill: 24° Ceiling: 1100
Heat Index: 24° Visibility: 10mi
Dew Point: 22° Wind: 12mph
Humidity: 87% Direction: 200° (SSW)
Pressure: 29.79in Gusts: 0mph
Raw Report DataKMDW 011051Z 20010KT 10SM BKN011 BKN027 OVC300 24/22 A2979 RMK AO2 SLP077 T02390217 $
Traffic Incident Summary
Active as of:
Severity:
Category:
InformationThere was an issue retrieving the traffic information for this location. Please try a different location or try again shortly.
Advertisements
Track Severe Weather on mobile